Time;durP1;ratioP1;P1;durP2;ratioP2;P2;SDS_P1;SDS_P2;PMS_P1;PMS_P2;Temp;Humidity;BMP_temperature;BMP_pressure;BME280_temperature;BME280_humidity;BME280_pressure;Samples;Min_cycle;Max_cycle;Signal;HPM_P1;HPM_P2
2023/03/21 00:01:03;;;;;;;30.17;20.10;;;11.10;99.90;;;;;;4974182;28;20100;-78
2023/03/21 00:03:30;;;;;;;36.00;23.83;;;11.00;99.90;;;;;;4974092;28;20026;-78
2023/03/21 00:05:56;;;;;;;34.60;22.95;;;11.00;99.90;;;;;;4973758;28;20029;-76
2023/03/21 00:08:23;;;;;;;34.55;23.70;;;10.90;99.90;;;;;;4973955;28;20027;-76
2023/03/21 00:11:01;;;;;;;37.70;23.60;;;10.80;99.90;;;;;;4956546;28;20398;-76
2023/03/21 00:13:31;;;;;;;34.65;23.90;;;10.80;99.90;;;;;;4956548;28;20047;-79
2023/03/21 00:16:15;;;;;;;30.95;22.38;;;10.80;99.90;;;;;;4972600;28;20114;-78
2023/03/21 00:18:45;;;;;;;30.33;21.92;;;10.80;99.90;;;;;;4974040;28;20035;-78
2023/03/21 00:21:16;;;;;;;32.10;24.10;;;10.70;99.90;;;;;;4973093;28;20371;-78
2023/03/21 00:23:43;;;;;;;82.97;43.95;;;10.70;99.90;;;;;;4972399;28;20027;-78
2023/03/21 00:26:10;;;;;;;76.40;44.03;;;10.70;99.90;;;;;;4973689;28;20030;-76
2023/03/21 00:28:36;;;;;;;71.32;40.80;;;10.70;99.90;;;;;;4973436;28;20474;-77
2023/03/21 00:31:02;;;;;;;62.47;33.97;;;10.70;99.90;;;;;;4973674;28;20026;-77
2023/03/21 00:33:28;;;;;;;49.67;30.27;;;10.70;99.90;;;;;;4973787;28;20390;-76
2023/03/21 00:35:55;;;;;;;35.20;24.75;;;10.70;99.90;;;;;;4973436;28;20078;-78
2023/03/21 00:38:22;;;;;;;36.13;24.63;;;10.70;99.90;;;;;;4973382;28;20062;-77
2023/03/21 00:40:48;;;;;;;37.40;24.05;;;10.80;99.90;;;;;;4972453;28;20518;-78
2023/03/21 00:43:16;;;;;;;36.50;25.48;;;10.80;99.90;;;;;;4973290;28;20041;-78
2023/03/21 00:45:43;;;;;;;62.53;30.77;;;10.80;99.90;;;;;;4970483;28;20457;-77
2023/03/21 00:48:09;;;;;;;44.55;27.73;;;10.80;99.90;;;;;;4972194;28;20375;-77
2023/03/21 00:50:38;;;;;;;71.18;41.47;;;10.80;99.90;;;;;;4971276;28;20038;-77
2023/03/21 00:53:05;;;;;;;70.47;44.50;;;10.80;99.90;;;;;;4973065;28;20057;-78
2023/03/21 00:55:31;;;;;;;140.25;78.70;;;10.70;99.90;;;;;;4972281;28;20023;-76
2023/03/21 00:57:57;;;;;;;103.10;62.20;;;10.80;99.90;;;;;;4962648;28;20034;-78
2023/03/21 01:00:24;;;;;;;66.57;45.30;;;10.70;99.90;;;;;;4967852;28;20042;-74
2023/03/21 01:02:55;;;;;;;42.67;28.40;;;10.70;99.90;;;;;;4968124;28;20026;-78
2023/03/21 01:08:13;;;;;;;35.28;24.38;;;10.70;99.90;;;;;;4969502;28;20034;-78
2023/03/21 01:10:40;;;;;;;34.22;24.10;;;10.60;99.90;;;;;;4970819;28;20030;-78
2023/03/21 01:13:07;;;;;;;35.42;23.65;;;10.50;99.90;;;;;;4969025;28;20030;-78
2023/03/21 01:15:33;;;;;;;35.17;22.83;;;10.50;99.90;;;;;;4971921;28;20074;-80
2023/03/21 01:18:00;;;;;;;34.03;22.15;;;10.50;99.90;;;;;;4954293;28;20031;-78
2023/03/21 01:20:26;;;;;;;30.42;19.85;;;10.50;99.90;;;;;;4971549;28;20035;-78
2023/03/21 01:22:52;;;;;;;30.70;22.10;;;10.50;99.90;;;;;;4937938;28;20034;-76
2023/03/21 01:25:18;;;;;;;31.35;21.65;;;10.40;99.90;;;;;;4971928;28;20023;-77
2023/03/21 01:27:44;;;;;;;30.50;21.77;;;10.40;99.90;;;;;;4971531;28;20067;-79
2023/03/21 01:30:11;;;;;;;30.00;21.15;;;10.40;99.90;;;;;;4972811;28;20047;-80
2023/03/21 01:32:37;;;;;;;30.40;20.80;;;10.50;99.90;;;;;;4974086;28;20042;-78
2023/03/21 01:35:03;;;;;;;31.35;21.05;;;10.50;99.90;;;;;;4957895;28;20459;-78
2023/03/21 01:37:31;;;;;;;35.47;20.88;;;10.50;99.90;;;;;;4954770;28;20089;-74
2023/03/21 01:39:57;;;;;;;38.60;20.95;;;10.50;99.90;;;;;;4976682;28;20063;-78
2023/03/21 01:42:23;;;;;;;32.60;22.35;;;10.50;99.90;;;;;;4975699;28;20078;-80
2023/03/21 01:45:04;;;;;;;34.10;21.63;;;10.60;99.90;;;;;;4959359;28;20023;-78
2023/03/21 01:47:45;;;;;;;27.88;19.70;;;10.50;99.90;;;;;;4975224;28;20093;-77
2023/03/21 01:50:24;;;;;;;35.00;23.05;;;10.50;99.90;;;;;;4959595;28;20027;-81
2023/03/21 01:52:58;;;;;;;31.02;22.48;;;10.50;99.90;;;;;;4974875;28;20030;-73
2023/03/21 01:55:31;;;;;;;30.67;20.83;;;10.50;99.90;;;;;;4975296;28;20031;-78
2023/03/21 01:58:11;;;;;;;29.52;20.98;;;10.50;99.90;;;;;;4959231;28;20490;-75
2023/03/21 02:00:51;;;;;;;31.27;20.33;;;10.40;99.90;;;;;;4953208;28;20039;-75
2023/03/21 02:03:36;;;;;;;31.65;19.90;;;10.50;99.90;;;;;;4957655;28;20027;-75
2023/03/21 02:06:47;;;;;;;33.05;21.48;;;10.50;99.90;;;;;;4975181;28;20045;-74
2023/03/21 02:09:27;;;;;;;28.88;21.88;;;10.50;99.90;;;;;;4934323;28;20038;-77
2023/03/21 02:11:54;;;;;;;28.80;19.85;;;10.40;99.90;;;;;;4974605;28;20046;-78
2023/03/21 02:14:23;;;;;;;30.98;21.92;;;10.40;99.90;;;;;;4957869;28;20029;-78
2023/03/21 02:17:15;;;;;;;27.65;20.42;;;10.40;99.90;;;;;;4975008;28;20398;-77
2023/03/21 02:19:49;;;;;;;32.17;21.30;;;10.40;99.90;;;;;;4958345;28;20038;-77
2023/03/21 02:22:27;;;;;;;30.25;20.35;;;10.40;99.90;;;;;;4957444;28;20034;-74
2023/03/21 02:25:31;;;;;;;29.35;19.98;;;10.40;99.90;;;;;;4956196;28;20031;-72
2023/03/21 02:28:01;;;;;;;30.83;20.98;;;10.40;99.90;;;;;;4951187;28;20165;-79
2023/03/21 02:30:36;;;;;;;31.60;21.60;;;10.40;99.90;;;;;;4974345;28;20031;-76
2023/03/21 02:33:36;;;;;;;28.38;21.05;;;10.40;99.90;;;;;;4971709;28;20158;-77
2023/03/21 02:36:05;;;;;;;26.92;20.40;;;10.40;99.90;;;;;;4955400;28;20090;-77
2023/03/21 02:38:51;;;;;;;30.92;19.67;;;10.30;99.90;;;;;;4956984;28;20038;-77
2023/03/21 02:41:37;;;;;;;27.17;19.27;;;10.30;99.90;;;;;;4973833;28;20043;-77
2023/03/21 02:44:25;;;;;;;28.60;19.70;;;10.20;99.90;;;;;;4956004;28;20556;-78
2023/03/21 02:47:00;;;;;;;30.98;20.08;;;10.20;99.90;;;;;;4969271;28;20031;-77
2023/03/21 02:49:41;;;;;;;32.60;19.70;;;10.20;99.90;;;;;;4940759;28;20082;-74
2023/03/21 02:52:13;;;;;;;27.48;19.40;;;10.10;99.90;;;;;;4988866;28;20430;-77
2023/03/21 02:54:42;;;;;;;28.52;19.58;;;10.10;99.90;;;;;;4958080;28;20027;-76
2023/03/21 02:57:09;;;;;;;31.55;20.25;;;10.10;99.90;;;;;;4946037;28;20031;-80
2023/03/21 02:59:36;;;;;;;28.58;20.08;;;10.10;99.90;;;;;;4958161;28;20035;-78
2023/03/21 03:02:04;;;;;;;29.45;19.08;;;10.10;99.90;;;;;;4955386;28;20018;-78
2023/03/21 03:04:30;;;;;;;31.25;20.50;;;10.10;99.90;;;;;;4977851;28;20101;-77
2023/03/21 03:07:04;;;;;;;32.00;20.23;;;10.00;99.90;;;;;;4955390;28;20483;-74
2023/03/21 03:09:38;;;;;;;30.65;21.63;;;10.00;99.90;;;;;;4949897;28;20383;-75
2023/03/21 03:12:19;;;;;;;26.08;18.33;;;10.00;99.90;;;;;;4966870;28;20027;-77
2023/03/21 03:14:52;;;;;;;28.23;19.27;;;10.00;99.90;;;;;;4943369;28;20050;-77
2023/03/21 03:17:36;;;;;;;28.98;19.23;;;10.00;99.90;;;;;;4963883;28;20470;-73
2023/03/21 03:20:09;;;;;;;28.75;18.83;;;9.90;99.90;;;;;;4967591;28;20035;-74
2023/03/21 03:22:56;;;;;;;27.45;18.67;;;9.90;99.90;;;;;;4957261;28;20121;-77
2023/03/21 03:26:07;;;;;;;26.92;18.25;;;9.80;99.90;;;;;;4881468;29;20093;-77
2023/03/21 03:28:44;;;;;;;23.92;17.15;;;9.80;99.90;;;;;;4856586;29;20038;-75
2023/03/21 03:31:20;;;;;;;26.10;18.33;;;9.80;99.90;;;;;;4838069;29;20037;-75
2023/03/21 03:33:55;;;;;;;29.23;18.88;;;9.60;99.90;;;;;;4841632;29;20034;-77
2023/03/21 03:36:28;;;;;;;27.77;17.60;;;9.70;99.90;;;;;;4842166;29;20098;-79
2023/03/21 03:38:56;;;;;;;26.73;17.60;;;9.70;99.90;;;;;;4839287;29;20589;-78
2023/03/21 03:41:25;;;;;;;31.45;18.05;;;9.60;99.90;;;;;;4841562;29;20550;-78
2023/03/21 03:43:58;;;;;;;27.52;17.90;;;9.50;99.90;;;;;;4819533;29;20114;-79
2023/03/21 03:46:26;;;;;;;32.05;18.13;;;9.50;99.90;;;;;;4845620;29;20038;-79
2023/03/21 03:49:16;;;;;;;27.60;17.83;;;9.40;99.90;;;;;;4820401;29;20046;-79
2023/03/21 03:51:42;;;;;;;26.27;18.02;;;9.40;99.90;;;;;;4834510;29;20371;-75
2023/03/21 03:54:36;;;;;;;27.15;18.25;;;9.40;99.90;;;;;;4837231;29;20102;-79
2023/03/21 03:57:04;;;;;;;27.20;17.48;;;9.40;99.90;;;;;;4837971;29;20068;-79
2023/03/21 03:59:36;;;;;;;26.25;17.45;;;9.30;99.90;;;;;;4865490;29;20040;-78
2023/03/21 04:02:25;;;;;;;26.83;16.95;;;9.30;99.90;;;;;;4918442;28;20035;-75
2023/03/21 04:04:52;;;;;;;27.63;17.35;;;9.30;99.90;;;;;;4943709;28;20023;-76
2023/03/21 04:07:21;;;;;;;23.65;17.05;;;9.30;99.90;;;;;;4965307;28;20034;-76
2023/03/21 04:09:48;;;;;;;22.70;14.98;;;9.30;99.90;;;;;;4966096;28;20054;-76
2023/03/21 04:12:17;;;;;;;22.02;15.10;;;9.30;99.90;;;;;;4951695;28;20019;-76
2023/03/21 04:15:00;;;;;;;22.83;15.20;;;9.30;99.90;;;;;;4967752;28;20503;-77
2023/03/21 04:17:27;;;;;;;20.80;14.32;;;9.30;99.90;;;;;;4939354;28;20035;-77
2023/03/21 04:19:52;;;;;;;23.85;15.27;;;9.30;99.90;;;;;;4947653;28;20098;-79
2023/03/21 04:22:21;;;;;;;24.60;14.82;;;9.30;99.90;;;;;;4942590;28;20041;-77
2023/03/21 04:24:47;;;;;;;24.25;16.40;;;9.20;99.90;;;;;;4945543;28;20027;-76
2023/03/21 04:27:13;;;;;;;26.33;15.10;;;9.30;99.90;;;;;;4939789;28;20394;-79
2023/03/21 04:29:58;;;;;;;26.90;16.20;;;9.30;99.90;;;;;;4947452;28;20030;-78
2023/03/21 04:32:41;;;;;;;25.63;15.52;;;9.30;99.90;;;;;;4950045;28;20509;-78
2023/03/21 04:35:11;;;;;;;21.00;14.50;;;9.20;99.90;;;;;;4944063;28;20085;-77
2023/03/21 04:37:38;;;;;;;23.00;14.77;;;9.20;99.90;;;;;;4941362;28;20050;-77
2023/03/21 04:40:06;;;;;;;21.52;13.85;;;9.20;99.90;;;;;;4942154;28;20557;-76
2023/03/21 04:42:33;;;;;;;30.90;16.70;;;9.20;99.90;;;;;;4950595;28;20038;-78
2023/03/21 04:45:00;;;;;;;22.52;14.20;;;9.20;99.90;;;;;;4941146;28;20031;-78
2023/03/21 04:47:26;;;;;;;25.48;15.38;;;9.20;99.90;;;;;;4940462;28;20407;-74
2023/03/21 04:49:55;;;;;;;22.67;15.23;;;9.30;99.90;;;;;;4941746;28;20047;-78
2023/03/21 04:52:22;;;;;;;26.42;15.43;;;9.20;99.90;;;;;;4958325;28;20023;-77
2023/03/21 04:54:48;;;;;;;23.48;14.55;;;9.30;99.90;;;;;;4946112;28;20046;-74
2023/03/21 04:57:14;;;;;;;21.23;14.15;;;9.30;99.90;;;;;;4966486;28;20093;-77
2023/03/21 04:59:41;;;;;;;23.25;13.00;;;9.30;99.90;;;;;;4942745;28;20114;-76
2023/03/21 05:02:07;;;;;;;19.17;12.25;;;9.30;99.90;;;;;;4950823;28;20033;-77
2023/03/21 05:04:33;;;;;;;20.67;12.30;;;9.40;99.90;;;;;;4961692;28;20106;-78
2023/03/21 05:06:59;;;;;;;21.58;11.57;;;9.50;99.90;;;;;;4972454;28;20041;-79
2023/03/21 05:09:26;;;;;;;22.23;13.35;;;9.50;99.90;;;;;;4949980;28;20501;-74
2023/03/21 05:11:53;;;;;;;20.75;12.52;;;9.50;99.90;;;;;;4948261;28;20062;-74
2023/03/21 05:14:24;;;;;;;18.20;11.15;;;9.60;99.90;;;;;;4944676;28;20050;-78
2023/03/21 05:16:56;;;;;;;19.55;11.57;;;9.80;99.90;;;;;;4948313;28;20035;-80
2023/03/21 05:19:34;;;;;;;17.55;10.27;;;10.00;99.90;;;;;;4958272;28;20034;-77
2023/03/21 05:22:07;;;;;;;20.23;11.00;;;10.00;99.90;;;;;;4940675;28;20070;-78
2023/03/21 05:24:36;;;;;;;17.90;10.18;;;10.00;99.90;;;;;;4945299;28;20038;-80
2023/03/21 05:27:02;;;;;;;17.05;8.90;;;10.20;99.90;;;;;;4944068;28;20039;-76
2023/03/21 05:29:32;;;;;;;20.27;10.77;;;10.30;99.90;;;;;;4945563;28;20505;-74
2023/03/21 05:32:02;;;;;;;16.33;9.68;;;10.40;99.90;;;;;;4942932;28;20035;-75
2023/03/21 05:34:28;;;;;;;20.73;10.70;;;10.40;99.90;;;;;;4947383;28;20130;-77
2023/03/21 05:36:55;;;;;;;14.43;9.35;;;10.50;99.90;;;;;;4959150;28;20059;-77
2023/03/21 05:39:23;;;;;;;16.45;9.45;;;10.60;99.90;;;;;;4962898;28;20061;-76
2023/03/21 05:41:59;;;;;;;15.18;9.27;;;10.80;99.90;;;;;;4936905;28;20479;-76
2023/03/21 05:44:26;;;;;;;14.27;8.63;;;10.80;99.90;;;;;;4945002;28;20053;-76
2023/03/21 05:46:52;;;;;;;15.43;8.90;;;10.90;99.90;;;;;;4947051;28;20039;-77
2023/03/21 05:49:23;;;;;;;15.60;8.63;;;11.10;99.90;;;;;;4944333;28;20023;-77
2023/03/21 05:51:54;;;;;;;16.48;10.10;;;11.60;99.90;;;;;;4948137;28;20059;-78
2023/03/21 05:54:20;;;;;;;18.33;10.02;;;11.80;99.90;;;;;;4936102;28;20027;-77
2023/03/21 05:56:47;;;;;;;12.65;8.20;;;12.20;99.90;;;;;;4961527;28;20411;-77
2023/03/21 05:59:23;;;;;;;15.35;8.85;;;12.10;99.90;;;;;;4942778;28;20109;-76
2023/03/21 06:01:52;;;;;;;13.20;8.02;;;12.00;99.90;;;;;;4944996;28;20053;-77
2023/03/21 06:04:17;;;;;;;16.40;8.85;;;12.10;99.90;;;;;;4958971;28;20034;-74
2023/03/21 06:06:43;;;;;;;15.85;8.75;;;12.20;99.90;;;;;;4960715;28;20035;-76
2023/03/21 06:09:10;;;;;;;18.20;9.90;;;12.20;99.90;;;;;;4958471;28;20671;-78
2023/03/21 06:11:43;;;;;;;14.85;8.68;;;12.20;99.90;;;;;;4937028;28;20024;-77
2023/03/21 06:14:37;;;;;;;17.17;9.38;;;12.20;99.90;;;;;;4947356;28;20053;-77
2023/03/21 06:17:13;;;;;;;18.83;8.90;;;12.10;99.90;;;;;;4944955;28;20042;-77
2023/03/21 06:19:48;;;;;;;16.60;8.77;;;12.10;99.90;;;;;;4965493;28;20027;-77
2023/03/21 06:22:29;;;;;;;15.02;8.18;;;12.20;99.90;;;;;;4963995;28;20035;-74
2023/03/21 06:24:55;;;;;;;14.65;8.52;;;12.20;99.90;;;;;;4941024;28;20027;-74
2023/03/21 06:27:20;;;;;;;17.23;8.80;;;12.20;99.90;;;;;;4948403;28;20057;-72
2023/03/21 06:29:53;;;;;;;12.65;6.97;;;12.20;99.90;;;;;;4944951;28;20058;-73
2023/03/21 06:32:19;;;;;;;15.05;8.30;;;12.30;99.90;;;;;;4949356;28;20035;-72
2023/03/21 06:34:49;;;;;;;17.30;8.68;;;12.40;99.90;;;;;;4943505;28;20061;-76
2023/03/21 06:37:16;;;;;;;13.60;8.57;;;12.40;99.90;;;;;;4953685;28;20063;-75
2023/03/21 06:39:42;;;;;;;15.48;9.25;;;12.40;99.90;;;;;;4943128;28;20039;-76
2023/03/21 06:42:08;;;;;;;14.43;9.15;;;12.40;99.90;;;;;;4959934;28;20035;-75
2023/03/21 06:44:34;;;;;;;19.38;10.10;;;12.40;99.90;;;;;;4956694;28;20360;-76
2023/03/21 06:47:05;;;;;;;15.55;8.38;;;12.40;99.90;;;;;;4964688;28;20030;-75
2023/03/21 06:49:31;;;;;;;15.48;7.85;;;12.30;99.90;;;;;;4963689;28;20704;-73
2023/03/21 06:52:01;;;;;;;16.20;9.00;;;12.40;99.90;;;;;;4947071;28;20031;-79
2023/03/21 06:54:27;;;;;;;15.80;9.38;;;12.30;99.90;;;;;;4951500;28;20030;-77
2023/03/21 06:56:59;;;;;;;15.80;8.75;;;12.30;99.90;;;;;;4948199;28;20035;-77
2023/03/21 06:59:30;;;;;;;13.50;8.18;;;12.40;99.90;;;;;;4968702;28;20023;-79
2023/03/21 07:02:22;;;;;;;18.55;9.75;;;12.30;99.90;;;;;;4972042;28;20368;-77
2023/03/21 07:05:05;;;;;;;15.90;9.35;;;12.40;99.90;;;;;;4958029;28;20497;-76
2023/03/21 07:07:31;;;;;;;19.52;10.10;;;12.50;99.90;;;;;;4957258;28;20403;-78
2023/03/21 07:09:57;;;;;;;15.25;8.88;;;12.60;99.90;;;;;;4957428;28;20038;-77
2023/03/21 07:12:25;;;;;;;15.23;8.98;;;12.70;99.90;;;;;;4973363;28;20074;-77
2023/03/21 07:15:14;;;;;;;13.63;8.93;;;12.70;99.90;;;;;;4932658;28;20126;-77
2023/03/21 07:17:42;;;;;;;17.75;9.50;;;12.80;99.90;;;;;;4933219;29;20251;-77
2023/03/21 07:20:08;;;;;;;18.98;10.20;;;12.80;99.90;;;;;;4917105;29;20131;-78
2023/03/21 07:22:35;;;;;;;19.23;11.57;;;12.80;99.90;;;;;;4934491;29;20046;-77
2023/03/21 07:25:01;;;;;;;18.83;11.00;;;12.70;99.90;;;;;;4918165;29;20447;-78
2023/03/21 07:27:27;;;;;;;21.38;12.07;;;12.90;99.90;;;;;;4934141;29;20052;-78
2023/03/21 07:29:52;;;;;;;18.92;10.75;;;12.80;99.90;;;;;;4933682;29;20035;-77
2023/03/21 07:32:18;;;;;;;21.50;11.02;;;12.90;99.90;;;;;;4917584;29;20031;-77
2023/03/21 07:34:44;;;;;;;19.25;11.48;;;12.90;99.90;;;;;;4918148;29;20036;-77
2023/03/21 07:37:10;;;;;;;17.70;9.98;;;13.00;99.90;;;;;;4932509;29;20495;-74
2023/03/21 07:39:36;;;;;;;16.58;9.48;;;12.90;99.90;;;;;;4931069;29;20033;-72
2023/03/21 07:42:01;;;;;;;22.85;12.18;;;12.80;99.90;;;;;;4917608;29;20155;-75
2023/03/21 07:44:36;;;;;;;19.55;10.88;;;12.80;99.90;;;;;;4917506;29;20068;-74
2023/03/21 07:47:04;;;;;;;19.33;11.57;;;12.80;99.90;;;;;;4934380;29;20035;-75
2023/03/21 07:49:30;;;;;;;21.42;11.00;;;12.80;99.90;;;;;;4917135;29;20024;-75
2023/03/21 07:51:56;;;;;;;18.02;11.65;;;12.90;99.90;;;;;;4932694;28;20126;-76
2023/03/21 07:54:22;;;;;;;18.10;11.30;;;12.90;99.90;;;;;;4974263;28;20162;-76
2023/03/21 07:56:48;;;;;;;20.88;11.27;;;12.90;99.90;;;;;;4974055;28;20031;-76
2023/03/21 07:59:14;;;;;;;21.60;11.85;;;13.00;99.90;;;;;;4974023;28;20027;-76
2023/03/21 08:01:40;;;;;;;18.08;12.00;;;13.10;99.90;;;;;;4973420;28;20035;-76
2023/03/21 08:04:07;;;;;;;21.00;12.93;;;13.30;99.90;;;;;;4973538;28;20034;-72
2023/03/21 08:06:33;;;;;;;18.27;12.00;;;13.70;99.90;;;;;;4974760;28;20122;-75
2023/03/21 08:08:58;;;;;;;20.67;12.20;;;13.80;99.90;;;;;;4967698;28;20094;-76
2023/03/21 08:11:26;;;;;;;20.50;11.93;;;13.90;99.90;;;;;;4972842;28;20097;-71
2023/03/21 08:13:52;;;;;;;21.20;11.73;;;13.70;99.90;;;;;;4969663;28;20506;-76
2023/03/21 08:16:19;;;;;;;19.77;12.30;;;13.70;99.90;;;;;;4971876;28;20022;-76
2023/03/21 08:18:45;;;;;;;19.55;11.25;;;13.70;99.90;;;;;;4970487;28;20022;-77
2023/03/21 08:21:11;;;;;;;21.25;11.82;;;13.90;99.90;;;;;;4972500;28;20046;-76
2023/03/21 08:23:37;;;;;;;18.23;12.52;;;14.00;99.90;;;;;;4971754;28;20510;-73
2023/03/21 08:26:02;;;;;;;18.52;11.90;;;14.10;99.90;;;;;;4973978;28;20113;-76
2023/03/21 08:28:28;;;;;;;17.35;11.40;;;14.00;99.90;;;;;;4973873;28;20023;-76
2023/03/21 08:30:55;;;;;;;17.13;11.27;;;14.10;99.90;;;;;;4973699;28;20030;-74
2023/03/21 08:33:21;;;;;;;18.02;12.30;;;14.00;99.90;;;;;;4973737;28;20021;-75
2023/03/21 08:35:47;;;;;;;31.75;16.60;;;13.90;99.90;;;;;;4973892;28;20074;-75
2023/03/21 08:38:13;;;;;;;23.10;13.20;;;14.00;99.90;;;;;;4973445;28;20035;-76
2023/03/21 08:40:40;;;;;;;25.73;13.25;;;14.10;99.90;;;;;;4968533;28;20097;-76
2023/03/21 08:43:06;;;;;;;20.05;13.25;;;14.10;99.90;;;;;;4973238;28;20544;-76
2023/03/21 08:45:31;;;;;;;21.45;12.23;;;14.10;99.90;;;;;;4973380;28;20121;-74
2023/03/21 08:47:57;;;;;;;18.98;12.45;;;14.10;99.90;;;;;;4973607;28;20050;-76
2023/03/21 08:50:26;;;;;;;21.45;13.85;;;14.20;99.90;;;;;;4972801;28;20019;-75
2023/03/21 08:52:52;;;;;;;26.35;13.85;;;14.30;99.90;;;;;;4973179;28;20038;-75
2023/03/21 08:55:18;;;;;;;16.92;11.52;;;14.60;99.90;;;;;;4973561;28;20031;-75
2023/03/21 08:57:45;;;;;;;19.23;12.38;;;14.50;99.90;;;;;;4955607;28;20118;-76
2023/03/21 09:00:13;;;;;;;18.55;11.40;;;14.50;99.90;;;;;;4973335;28;20478;-76
2023/03/21 09:02:43;;;;;;;20.92;12.32;;;14.70;99.90;;;;;;4973252;28;20062;-75
2023/03/21 09:05:10;;;;;;;20.05;11.35;;;15.00;99.90;;;;;;4972144;28;20117;-76
2023/03/21 09:07:38;;;;;;;21.17;11.90;;;14.80;99.90;;;;;;4973186;28;20027;-74
2023/03/21 09:10:05;;;;;;;18.13;11.68;;;14.70;99.90;;;;;;4973311;28;20023;-71
2023/03/21 09:12:32;;;;;;;18.15;10.60;;;14.50;99.90;;;;;;4973138;28;20478;-75
2023/03/21 09:15:01;;;;;;;18.85;11.27;;;14.50;99.90;;;;;;4973021;28;20030;-71
2023/03/21 09:17:30;;;;;;;18.38;11.98;;;14.40;99.90;;;;;;4973229;28;20034;-76
2023/03/21 09:19:59;;;;;;;22.15;12.07;;;14.40;99.90;;;;;;4972951;28;20034;-75
2023/03/21 09:22:26;;;;;;;18.05;10.50;;;14.50;99.90;;;;;;4973059;28;20015;-75
2023/03/21 09:24:52;;;;;;;17.52;10.82;;;14.50;99.90;;;;;;4973144;28;20110;-76
2023/03/21 09:27:24;;;;;;;19.27;10.63;;;14.60;99.90;;;;;;4973003;28;20022;-77
2023/03/21 09:29:50;;;;;;;19.15;11.73;;;14.50;99.90;;;;;;4973454;28;20098;-76
2023/03/21 09:32:17;;;;;;;17.15;10.60;;;14.50;99.90;;;;;;4972861;28;20481;-76
2023/03/21 09:34:43;;;;;;;15.23;9.60;;;14.50;99.90;;;;;;4973071;28;20027;-78
2023/03/21 09:37:10;;;;;;;17.95;11.52;;;14.60;99.90;;;;;;4973225;28;20134;-77
2023/03/21 09:39:36;;;;;;;17.33;9.88;;;14.50;99.90;;;;;;4973263;28;20042;-76
2023/03/21 09:42:24;;;;;;;18.02;10.57;;;14.60;99.90;;;;;;4972938;28;20031;-77
2023/03/21 09:45:37;;;;;;;17.05;11.00;;;14.80;99.90;;;;;;4972640;28;20031;-76
2023/03/21 09:48:12;;;;;;;17.17;10.93;;;15.20;99.90;;;;;;4894446;29;20099;-77
2023/03/21 09:50:39;;;;;;;15.23;8.95;;;15.50;99.90;;;;;;4894746;29;20047;-78
2023/03/21 09:53:12;;;;;;;14.75;9.60;;;15.80;99.90;;;;;;4894537;29;20044;-78
2023/03/21 09:55:40;;;;;;;16.50;9.68;;;16.00;99.90;;;;;;4896928;29;20124;-74
2023/03/21 09:58:23;;;;;;;17.33;10.48;;;15.90;99.90;;;;;;4897963;29;20503;-76
2023/03/21 10:00:55;;;;;;;15.57;10.35;;;16.30;99.90;;;;;;4897952;29;20040;-76
2023/03/21 10:03:25;;;;;;;18.63;9.95;;;16.60;99.90;;;;;;4898529;29;20486;-77
2023/03/21 10:05:57;;;;;;;17.05;10.13;;;16.80;99.90;;;;;;4897872;29;20104;-77
2023/03/21 10:08:35;;;;;;;16.10;9.32;;;16.60;99.90;;;;;;4897907;29;20434;-77
2023/03/21 10:11:14;;;;;;;16.50;10.52;;;16.90;99.90;;;;;;4897838;29;20020;-76
2023/03/21 10:13:49;;;;;;;15.95;10.23;;;17.30;99.90;;;;;;4897943;29;20032;-78
2023/03/21 10:16:34;;;;;;;15.77;9.18;;;17.00;99.90;;;;;;4903815;29;20032;-76
2023/03/21 10:19:06;;;;;;;16.30;10.05;;;16.90;99.90;;;;;;4942812;28;20632;-76
2023/03/21 10:21:32;;;;;;;;;;;16.60;99.90;;;;;;4976356;28;20046;-74
2023/03/21 10:23:59;;;;;;;15.07;10.02;;;16.50;99.90;;;;;;4976318;28;19910;-77
2023/03/21 10:26:29;;;;;;;17.05;10.45;;;16.60;99.90;;;;;;4975827;28;20027;-75
2023/03/21 10:28:58;;;;;;;14.35;8.65;;;16.50;99.90;;;;;;4975802;28;20110;-76
2023/03/21 10:31:27;;;;;;;18.83;10.93;;;16.30;99.90;;;;;;4975881;28;20027;-73
2023/03/21 10:34:01;;;;;;;21.30;11.82;;;16.10;99.90;;;;;;4976148;28;20414;-77
2023/03/21 10:36:30;;;;;;;18.42;11.13;;;16.10;99.90;;;;;;4975729;28;20046;-77
2023/03/21 10:39:03;;;;;;;20.45;10.00;;;16.10;99.90;;;;;;4975903;28;20027;-77
2023/03/21 10:41:30;;;;;;;17.92;10.27;;;16.10;99.90;;;;;;4975484;28;20371;-77
2023/03/21 10:44:17;;;;;;;15.40;10.32;;;16.20;99.90;;;;;;4975954;28;20022;-73
2023/03/21 10:46:54;;;;;;;16.90;10.48;;;16.40;99.90;;;;;;4972549;28;20085;-74
2023/03/21 10:49:20;;;;;;;17.45;10.95;;;16.80;99.90;;;;;;4975598;28;20114;-77
2023/03/21 10:51:51;;;;;;;25.73;10.68;;;16.80;99.90;;;;;;4988849;28;20379;-76
2023/03/21 10:54:20;;;;;;;16.35;9.40;;;16.50;99.90;;;;;;4975480;28;20031;-76
2023/03/21 10:57:13;;;;;;;17.58;10.57;;;16.50;99.90;;;;;;4975634;28;20058;-77
2023/03/21 10:59:48;;;;;;;15.60;9.50;;;16.60;99.90;;;;;;4975650;28;20076;-73
2023/03/21 11:02:27;;;;;;;17.42;10.02;;;16.60;99.90;;;;;;4975278;28;20039;-76
2023/03/21 11:04:54;;;;;;;19.77;10.43;;;16.50;99.90;;;;;;4974442;28;20030;-74
2023/03/21 11:07:22;;;;;;;15.68;10.18;;;16.40;99.90;;;;;;4974774;28;20030;-77
2023/03/21 11:09:54;;;;;;;18.80;11.70;;;16.40;99.90;;;;;;4973834;28;20497;-76
2023/03/21 11:12:37;;;;;;;14.90;9.90;;;16.50;99.90;;;;;;4959050;28;20439;-76
2023/03/21 11:15:25;;;;;;;23.42;13.38;;;16.40;99.90;;;;;;4974524;28;20030;-76
2023/03/21 11:17:50;;;;;;;18.25;11.38;;;16.40;99.90;;;;;;4971683;28;20384;-75
2023/03/21 11:20:18;;;;;;;18.33;10.88;;;16.30;99.90;;;;;;4972796;28;20035;-77
2023/03/21 11:22:46;;;;;;;20.92;11.07;;;16.20;99.90;;;;;;4973503;28;20121;-77
2023/03/21 11:25:25;;;;;;;18.10;10.10;;;16.30;99.90;;;;;;4973870;28;20042;-77
2023/03/21 11:27:53;;;;;;;18.17;9.95;;;16.50;99.90;;;;;;4974869;28;20046;-77
2023/03/21 11:30:25;;;;;;;17.13;9.65;;;16.80;99.90;;;;;;4965752;28;20011;-76
2023/03/21 11:32:55;;;;;;;16.70;9.98;;;16.90;99.90;;;;;;4974071;28;20078;-76
2023/03/21 11:35:26;;;;;;;15.02;10.18;;;16.90;99.90;;;;;;4962827;28;20050;-76
2023/03/21 11:37:55;;;;;;;15.70;9.30;;;17.00;99.90;;;;;;4973648;28;20047;-75
2023/03/21 11:40:24;;;;;;;17.55;10.75;;;17.40;99.90;;;;;;4969993;28;20035;-77
2023/03/21 11:42:59;;;;;;;14.23;9.50;;;17.60;99.90;;;;;;4973225;28;20034;-77
2023/03/21 11:45:32;;;;;;;20.95;10.70;;;17.90;99.90;;;;;;4974705;28;20483;-78
2023/03/21 11:48:00;;;;;;;17.23;10.15;;;18.20;99.90;;;;;;4974390;28;20034;-78
2023/03/21 11:50:37;;;;;;;17.58;10.05;;;18.20;99.90;;;;;;4974160;28;20090;-76
2023/03/21 11:53:15;;;;;;;20.10;10.07;;;18.00;99.90;;;;;;4974510;28;20085;-77
2023/03/21 11:56:04;;;;;;;16.00;9.40;;;17.80;99.90;;;;;;4974382;28;20027;-77
2023/03/21 11:58:52;;;;;;;15.48;9.80;;;18.00;99.90;;;;;;4964070;28;20023;-76
2023/03/21 12:01:45;;;;;;;17.65;10.23;;;17.90;99.90;;;;;;4974149;28;20034;-75
2023/03/21 12:04:40;;;;;;;16.73;10.90;;;18.00;99.90;;;;;;4964229;28;20078;-77
2023/03/21 12:07:17;;;;;;;14.05;8.82;;;17.90;99.90;;;;;;4972589;28;20034;-78
2023/03/21 12:10:10;;;;;;;17.52;10.70;;;17.90;99.90;;;;;;4963004;28;20030;-74
2023/03/21 12:12:48;;;;;;;;;;;18.10;99.90;;;;;;4974255;28;20039;-76
2023/03/21 12:15:29;;;;;;;16.10;10.68;;;17.80;99.90;;;;;;4970744;28;20388;-76
2023/03/21 12:18:00;;;;;;;13.75;9.15;;;17.70;99.90;;;;;;4973173;28;20109;-75
2023/03/21 12:21:17;;;;;;;15.63;9.85;;;17.60;99.90;;;;;;4969390;28;20442;-75
2023/03/21 12:24:17;;;;;;;16.35;8.77;;;17.80;99.90;;;;;;4910369;29;20040;-74
2023/03/21 12:26:47;;;;;;;13.80;8.40;;;17.90;99.10;;;;;;4839109;29;20041;-75
2023/03/21 12:29:24;;;;;;;13.55;9.02;;;18.30;99.90;;;;;;4846528;29;20398;-75
2023/03/21 12:32:03;;;;;;;16.17;9.68;;;18.30;99.70;;;;;;4851004;29;20077;-76
2023/03/21 12:34:38;;;;;;;13.98;8.95;;;18.30;98.40;;;;;;4839534;29;20117;-76
2023/03/21 12:37:30;;;;;;;15.30;9.13;;;18.50;97.60;;;;;;4839455;29;20052;-77
2023/03/21 12:40:14;;;;;;;16.08;10.82;;;18.10;97.40;;;;;;4839580;29;20060;-72
2023/03/21 12:42:48;;;;;;;15.23;9.02;;;18.10;97.60;;;;;;4839562;29;20552;-75
2023/03/21 12:45:24;;;;;;;15.02;8.95;;;18.10;97.70;;;;;;4839600;29;20538;-77
2023/03/21 12:47:55;;;;;;;16.60;8.25;;;18.30;99.00;;;;;;4838645;29;20037;-76
2023/03/21 12:50:36;;;;;;;15.32;9.30;;;18.30;97.30;;;;;;4839172;29;20048;-73
2023/03/21 12:53:29;;;;;;;16.13;8.18;;;18.30;99.50;;;;;;4839543;29;20056;-76
2023/03/21 12:56:00;;;;;;;15.30;8.68;;;18.40;97.40;;;;;;4839285;29;20122;-75
2023/03/21 12:58:28;;;;;;;13.23;8.52;;;18.50;97.30;;;;;;4849324;29;20052;-75